Time;durP1;ratioP1;P1;durP2;ratioP2;P2;SDS_P1;SDS_P2;PMS_P1;PMS_P2;Temp;Humidity;BMP_temperature;BMP_pressure;BME280_temperature;BME280_humidity;BME280_pressure;Samples;Min_cycle;Max_cycle;Signal;HPM_P1;HPM_P2
2022/11/09 00:00:05;;;;;;;;;4.33;1.33;;;;;15.71;66.76;100263.22;5051216;28;45255;-60
2022/11/09 00:02:30;;;;;;;;;5.33;3.67;;;;;15.77;66.68;100282.06;5053846;28;46985;-62
2022/11/09 00:04:55;;;;;;;;;4.67;2.33;;;;;15.75;67.05;100286.53;5052589;28;46115;-60
2022/11/09 00:07:21;;;;;;;;;2.00;2.00;;;;;15.73;66.93;100296.41;5059019;28;45177;-60
2022/11/09 00:09:46;;;;;;;;;1.00;1.00;;;;;15.71;66.99;100287.44;5056529;28;44932;-59
2022/11/09 00:12:12;;;;;;;;;4.00;4.00;;;;;15.71;67.28;100290.13;5059917;28;45655;-62
2022/11/09 00:14:37;;;;;;;;;5.00;4.00;;;;;15.73;67.29;100301.81;5054401;28;45081;-59
2022/11/09 00:17:03;;;;;;;;;4.33;2.00;;;;;15.71;67.25;100309.88;5039049;28;45177;-60
2022/11/09 00:19:28;;;;;;;;;3.33;2.33;;;;;15.72;67.25;100319.72;5058375;28;46319;-60
2022/11/09 00:21:53;;;;;;;;;4.33;2.33;;;;;15.74;68.35;100317.03;5049311;28;63788;-59
2022/11/09 00:24:19;;;;;;;;;3.00;3.00;;;;;15.70;69.63;100307.19;5049164;28;45530;-60
2022/11/09 00:26:44;;;;;;;;;4.33;3.67;;;;;15.72;69.60;100305.38;5051469;28;54356;-59
2022/11/09 00:29:09;;;;;;;;;5.33;2.67;;;;;15.66;70.16;100315.28;5056667;28;50554;-59
2022/11/09 00:31:35;;;;;;;;;5.67;2.33;;;;;15.58;70.30;100294.66;5067087;28;50346;-59
2022/11/09 00:34:00;;;;;;;;;3.00;2.33;;;;;15.61;70.41;100281.19;5058141;28;46104;-59
2022/11/09 00:36:27;;;;;;;;;2.67;2.67;;;;;15.63;70.55;100256.03;5059907;28;45053;-60
2022/11/09 00:38:55;;;;;;;;;7.33;2.00;;;;;15.65;70.68;100240.75;5051496;28;45240;-60
2022/11/09 00:41:21;;;;;;;;;2.67;2.67;;;;;15.61;70.45;100238.97;5055573;28;45294;-58
2022/11/09 00:43:46;;;;;;;;;4.00;2.33;;;;;15.65;70.29;100258.72;5050363;28;45227;-59
2022/11/09 00:46:12;;;;;;;;;3.00;3.00;;;;;15.59;70.43;100262.34;5038287;28;45126;-59
2022/11/09 00:48:38;;;;;;;;;4.33;2.67;;;;;15.58;70.99;100262.34;5054779;28;45285;-59
2022/11/09 00:51:04;;;;;;;;;1.67;1.67;;;;;15.60;70.71;100266.81;5056528;28;45219;-59
2022/11/09 00:53:30;;;;;;;;;3.00;1.33;;;;;15.60;70.74;100260.53;5051658;28;46212;-60
2022/11/09 00:56:04;;;;;;;;;2.67;2.67;;;;;15.60;70.68;100277.56;5057025;28;46050;-59
2022/11/09 00:58:31;;;;;;;;;2.00;1.50;;;;;15.61;70.29;100278.50;5057596;28;45212;-59
2022/11/09 01:00:58;;;;;;;;;3.00;2.00;;;;;15.59;70.31;100269.50;5053428;28;46270;-59
2022/11/09 01:03:24;;;;;;;;;2.33;1.33;;;;;15.58;70.25;100284.75;5052154;28;45190;-61
2022/11/09 01:05:50;;;;;;;;;3.67;1.67;;;;;15.55;70.01;100284.75;5065640;28;45180;-60
2022/11/09 01:08:16;;;;;;;;;4.33;3.67;;;;;15.54;69.61;100279.38;5060527;28;45206;-63
2022/11/09 01:10:43;;;;;;;;;3.00;1.33;;;;;15.52;69.76;100286.56;5058017;28;45501;-63
2022/11/09 01:13:11;;;;;;;;;2.33;2.00;;;;;15.50;69.94;100285.69;5061536;28;45194;-60
2022/11/09 01:15:44;;;;;;;;;1.33;1.33;;;;;15.49;70.02;100290.16;5062460;28;45168;-60
2022/11/09 01:18:10;;;;;;;;;2.33;2.33;;;;;15.46;69.91;100280.28;5049801;28;45197;-60
2022/11/09 01:20:44;;;;;;;;;6.33;2.00;;;;;15.51;70.22;100288.38;5060200;28;45829;-58
2022/11/09 01:23:10;;;;;;;;;3.00;1.33;;;;;15.53;70.30;100294.66;5052455;28;45028;-60
2022/11/09 01:25:36;;;;;;;;;2.00;2.00;;;;;15.50;70.05;100300.03;5052837;28;45130;-60
2022/11/09 01:28:02;;;;;;;;;3.67;3.33;;;;;15.47;70.03;100300.91;5057211;28;45300;-61
2022/11/09 01:30:28;;;;;;;;;2.00;1.00;;;;;15.52;69.93;100297.34;5051291;28;45701;-60
2022/11/09 01:32:53;;;;;;;;;1.67;1.67;;;;;15.41;69.60;100290.19;5055432;28;45235;-59
2022/11/09 01:35:18;;;;;;;;;3.67;2.33;;;;;15.36;69.75;100301.81;5055757;28;45301;-59
2022/11/09 01:37:44;;;;;;;;;3.00;0.67;;;;;15.40;69.21;100326.06;5054216;28;45245;-59
2022/11/09 01:40:10;;;;;;;;;4.67;2.33;;;;;15.37;69.70;100327.84;5058918;28;45141;-60
2022/11/09 01:42:37;;;;;;;;;3.33;2.67;;;;;15.31;69.99;100326.06;5053012;28;45297;-61
2022/11/09 01:45:17;;;;;;;;;3.00;3.00;;;;;15.26;70.29;100328.75;5053393;28;45127;-59
2022/11/09 01:47:47;;;;;;;;;2.00;2.00;;;;;15.25;69.90;100326.06;5057187;28;45110;-60
2022/11/09 01:50:17;;;;;;;;;3.00;1.33;;;;;15.18;69.96;100330.56;5061778;28;45801;-58
2022/11/09 01:52:47;;;;;;;;;2.67;2.00;;;;;15.07;70.06;100314.38;5052530;28;45167;-59
2022/11/09 01:55:17;;;;;;;;;1.00;1.00;;;;;15.06;70.12;100326.06;5046975;28;44956;-58
2022/11/09 01:58:00;;;;;;;;;3.33;1.00;;;;;14.99;69.59;100334.09;5057700;28;45096;-59
2022/11/09 02:00:26;;;;;;;;;1.00;1.00;;;;;14.95;70.01;100334.97;5056585;28;45763;-59
2022/11/09 02:03:08;;;;;;;;;2.33;1.33;;;;;14.84;70.18;100333.19;5053140;28;45029;-60
2022/11/09 02:05:36;;;;;;;;;2.33;1.00;;;;;14.84;70.01;100341.25;5056639;28;45200;-60
2022/11/09 02:08:05;;;;;;;;;1.00;1.00;;;;;14.84;69.93;100352.00;5053655;28;45199;-59
2022/11/09 02:10:45;;;;;;;;;1.33;1.33;;;;;14.87;69.91;100356.50;5054595;28;45499;-59
2022/11/09 02:13:12;;;;;;;;;2.33;1.00;;;;;14.84;69.77;100351.13;5059909;28;45199;-59
2022/11/09 02:15:38;;;;;;;;;5.00;1.00;;;;;14.82;69.82;100351.09;5048824;28;45481;-59
2022/11/09 02:18:03;;;;;;;;;1.33;1.33;;;;;14.78;69.67;100349.28;5057059;28;46202;-60
2022/11/09 02:20:29;;;;;;;;;0.33;0.33;;;;;14.73;69.70;100351.06;5057015;28;45085;-59
2022/11/09 02:22:55;;;;;;;;;0.00;0.00;;;;;14.64;69.49;100330.44;5057385;28;44974;-59
2022/11/09 02:25:21;;;;;;;;;3.00;3.00;;;;;14.73;69.92;100340.31;5056220;28;45133;-59
2022/11/09 02:27:47;;;;;;;;;3.00;2.00;;;;;14.70;69.90;100337.63;5057021;28;45590;-60
2022/11/09 02:30:13;;;;;;;;;3.00;1.00;;;;;14.72;69.84;100341.22;5053025;28;45324;-60
2022/11/09 02:32:39;;;;;;;;;5.67;1.00;;;;;14.71;69.78;100343.00;5057718;28;45187;-59
2022/11/09 02:35:04;;;;;;;;;3.00;1.33;;;;;14.64;69.80;100329.56;5057388;28;45434;-60
2022/11/09 02:37:49;;;;;;;;;5.00;2.00;;;;;14.65;69.41;100334.94;5064842;28;45072;-59
2022/11/09 02:40:35;;;;;;;;;3.67;2.00;;;;;14.65;69.57;100334.00;5054973;28;45935;-60
2022/11/09 02:43:01;;;;;;;;;2.00;0.00;;;;;14.64;69.07;100334.94;5057243;28;45118;-60
2022/11/09 02:45:26;;;;;;;;;0.00;0.00;;;;;14.59;69.46;100334.91;5060473;28;44980;-60
2022/11/09 02:47:51;;;;;;;;;1.00;1.00;;;;;14.53;69.04;100334.84;5054532;28;45035;-58
2022/11/09 02:50:18;;;;;;;;;3.00;1.67;;;;;14.61;69.19;100341.19;5050473;28;46340;-59
2022/11/09 02:52:43;;;;;;;;;2.67;2.00;;;;;14.59;68.96;100344.75;5064372;28;44988;-59
2022/11/09 02:55:09;;;;;;;;;0.67;0.67;;;;;14.53;68.74;100340.22;5065988;28;45099;-59
2022/11/09 02:57:34;;;;;;;;;1.00;1.00;;;;;14.56;69.19;100346.50;5062473;28;45865;-59
2022/11/09 02:59:59;;;;;;;;;3.00;2.00;;;;;14.54;68.89;100345.59;5054248;28;48117;-58
2022/11/09 03:02:24;;;;;;;;;0.00;0.00;;;;;14.55;68.79;100357.25;5057516;28;45042;-59
2022/11/09 03:04:50;;;;;;;;;1.00;1.00;;;;;14.49;68.79;100363.50;5052630;28;45527;-58
2022/11/09 03:07:15;;;;;;;;;3.33;1.33;;;;;14.46;68.73;100362.59;5059310;28;45164;-59
2022/11/09 03:09:40;;;;;;;;;1.00;1.00;;;;;14.43;68.85;100371.53;5058975;28;45045;-59
2022/11/09 03:14:50;;;;;;;;;0.00;0.00;;;;;14.36;68.41;100375.09;5061182;28;45090;-60
2022/11/09 03:17:16;;;;;;;;;1.33;1.00;;;;;14.31;68.53;100375.06;5061135;28;45303;-60
2022/11/09 03:19:42;;;;;;;;;3.00;0.00;;;;;14.27;68.59;100372.34;5057686;28;45820;-59
2022/11/09 03:22:07;;;;;;;;;1.00;1.00;;;;;14.25;68.48;100371.47;5063192;28;45045;-59
2022/11/09 03:24:32;;;;;;;;;1.33;0.00;;;;;14.24;68.39;100367.88;5057465;28;45217;-60
2022/11/09 03:26:58;;;;;;;;;1.67;1.00;;;;;14.19;68.38;100358.91;5059978;28;45172;-58
2022/11/09 03:29:23;;;;;;;;;1.33;0.00;;;;;14.23;68.23;100366.06;5062334;28;55782;-60
2022/11/09 03:31:48;;;;;;;;;2.00;0.00;;;;;14.23;68.38;100370.56;5058348;28;45178;-59
2022/11/09 03:34:14;;;;;;;;;0.00;0.00;;;;;14.22;68.30;100366.94;5052171;28;46240;-60
2022/11/09 03:36:39;;;;;;;;;0.00;0.00;;;;;14.16;68.10;100367.81;5061270;28;45324;-60
2022/11/09 03:39:04;;;;;;;;;0.00;0.00;;;;;14.15;68.02;100381.25;5054423;28;45449;-60
2022/11/09 03:41:30;;;;;;;;;0.00;0.00;;;;;14.09;67.83;100383.91;5057815;28;45269;-60
2022/11/09 03:43:55;;;;;;;;;0.67;0.00;;;;;14.07;68.31;100386.56;5059172;28;45048;-59
2022/11/09 03:46:20;;;;;;;;;1.33;0.67;;;;;14.08;68.57;100387.50;5056798;28;45021;-60
2022/11/09 03:48:45;;;;;;;;;1.00;0.00;;;;;13.73;68.23;100329.09;5064099;28;45318;-59
2022/11/09 03:51:11;;;;;;;;;1.00;1.00;;;;;14.03;68.53;100379.41;5054321;28;57142;-60
2022/11/09 03:53:36;;;;;;;;;0.33;0.00;;;;;14.01;68.66;100382.06;5058518;28;53168;-59
2022/11/09 03:56:01;;;;;;;;;0.00;0.00;;;;;14.06;68.75;100387.47;5058028;28;45003;-60
2022/11/09 03:58:27;;;;;;;;;0.00;0.00;;;;;14.06;68.40;100391.97;5055074;28;45524;-59
2022/11/09 04:00:52;;;;;;;;;3.00;1.00;;;;;14.07;68.39;100388.38;5056646;28;61693;-58
2022/11/09 04:03:17;;;;;;;;;0.33;0.33;;;;;14.08;68.16;100392.88;5053676;28;45057;-58
2022/11/09 04:05:43;;;;;;;;;0.00;0.00;;;;;14.07;68.36;100397.31;5056402;28;45349;-60
2022/11/09 04:08:08;;;;;;;;;26.75;25.50;;;;;14.06;68.46;100395.53;5051379;28;55504;-59
2022/11/09 04:10:33;;;;;;;;;1.00;0.00;;;;;14.04;68.52;100401.78;5052764;28;52786;-60
2022/11/09 04:12:59;;;;;;;;;1.00;1.00;;;;;14.04;68.83;100401.78;5055124;28;50693;-58
2022/11/09 04:15:24;;;;;;;;;0.00;0.00;;;;;14.03;68.45;100405.38;5055691;28;45152;-59
2022/11/09 04:17:57;;;;;;;;;0.00;0.00;;;;;14.02;68.66;100409.81;5067505;28;45715;-59
2022/11/09 04:20:23;;;;;;;;;0.00;0.00;;;;;14.01;68.29;100408.03;5056976;28;45124;-62
2022/11/09 04:23:00;;;;;;;;;0.67;0.00;;;;;14.00;68.55;100414.28;5055379;28;45135;-58
2022/11/09 04:25:27;;;;;;;;;0.67;0.00;;;;;13.96;68.73;100417.84;5054438;28;45050;-60
2022/11/09 04:27:57;;;;;;;;;0.00;0.00;;;;;13.95;68.67;100418.72;5055732;28;45602;-59
2022/11/09 04:30:26;;;;;;;;;0.67;0.00;;;;;13.92;68.32;100427.66;5055853;28;44926;-58
2022/11/09 04:32:52;;;;;;;;;0.67;0.00;;;;;13.89;68.95;100419.59;5053233;28;45051;-60
2022/11/09 04:35:17;;;;;;;;;0.00;0.00;;;;;13.94;68.76;100427.66;5052793;28;45003;-60
2022/11/09 04:37:42;;;;;;;;;1.00;0.00;;;;;13.93;68.51;100442.00;5052008;28;59645;-59
2022/11/09 04:40:08;;;;;;;;;1.67;1.00;;;;;13.90;68.55;100442.88;5056430;28;45233;-59
2022/11/09 04:42:33;;;;;;;;;3.00;0.00;;;;;13.92;68.67;100448.25;5058121;28;45200;-58
2022/11/09 04:44:59;;;;;;;;;1.00;1.00;;;;;13.90;69.12;100447.34;5064449;28;45222;-59
2022/11/09 04:47:24;;;;;;;;;3.00;1.33;;;;;13.93;68.53;100460.81;5055407;28;55405;-59
2022/11/09 04:49:49;;;;;;;;;0.67;0.00;;;;;13.83;68.78;100443.72;5052130;28;57525;-59
2022/11/09 04:52:15;;;;;;;;;1.33;0.00;;;;;13.74;69.00;100433.81;5054312;28;53871;-60
2022/11/09 04:54:40;;;;;;;;;0.00;0.00;;;;;13.81;68.96;100442.81;5052361;28;47149;-59
2022/11/09 04:57:05;;;;;;;;;1.00;0.00;;;;;13.80;69.40;100446.38;5057975;28;45157;-60
2022/11/09 04:59:30;;;;;;;;;1.00;0.00;;;;;13.76;69.12;100452.59;5065446;28;45178;-60
2022/11/09 05:01:56;;;;;;;;;0.00;0.00;;;;;13.63;69.16;100431.00;5056662;28;58444;-59
2022/11/09 05:04:21;;;;;;;;;0.33;0.00;;;;;13.69;68.75;100442.69;5057013;28;44973;-59
2022/11/09 05:06:46;;;;;;;;;0.00;0.00;;;;;13.73;69.56;100452.59;5052438;28;46918;-59
2022/11/09 05:09:12;;;;;;;;;1.33;1.00;;;;;13.74;69.93;100455.28;5054599;28;56763;-59
2022/11/09 05:11:37;;;;;;;;;0.33;0.33;;;;;13.78;69.05;100454.41;5057361;28;46607;-58
2022/11/09 05:14:03;;;;;;;;;4.00;2.67;;;;;13.75;69.59;100448.13;5062499;28;45546;-59
2022/11/09 05:16:29;;;;;;;;;1.00;0.00;;;;;13.72;69.26;100438.25;5044066;28;46263;-58
2022/11/09 05:18:54;;;;;;;;;0.00;0.00;;;;;13.71;69.80;100439.16;5052051;28;45418;-58
2022/11/09 05:21:20;;;;;;;;;0.00;0.00;;;;;13.62;69.25;100429.22;5051744;28;45089;-59
2022/11/09 05:23:57;;;;;;;;;1.67;0.00;;;;;13.69;69.43;100454.31;5055158;28;45399;-60
2022/11/09 05:26:28;;;;;;;;;2.67;0.00;;;;;13.66;69.13;100448.03;5058458;28;46253;-60
2022/11/09 05:28:54;;;;;;;;;1.00;1.00;;;;;13.64;69.97;100453.38;5055063;28;45297;-59
2022/11/09 05:31:19;;;;;;;;;1.67;0.00;;;;;13.62;69.56;100442.63;5051607;28;44975;-59
2022/11/09 05:33:47;;;;;;;;;0.67;0.67;;;;;13.67;69.46;100450.72;5050553;28;45240;-59
2022/11/09 05:36:13;;;;;;;;;4.00;1.33;;;;;13.69;69.26;100451.63;5059196;28;46138;-59
2022/11/09 05:38:38;;;;;;;;;3.00;3.00;;;;;13.71;69.45;100452.56;5054623;28;53707;-59
2022/11/09 05:41:03;;;;;;;;;2.00;1.00;;;;;13.74;69.37;100460.66;5054090;28;45017;-59
2022/11/09 05:43:29;;;;;;;;;6.67;2.00;;;;;13.74;69.28;100457.03;5055757;28;45390;-60
2022/11/09 05:45:54;;;;;;;;;0.00;0.00;;;;;13.76;69.74;100461.56;5045248;28;60769;-59
2022/11/09 05:48:19;;;;;;;;;1.00;1.00;;;;;13.83;69.95;100460.72;5058028;28;59448;-60
2022/11/09 05:50:45;;;;;;;;;2.67;1.00;;;;;13.80;69.53;100452.63;5051084;28;45192;-59
2022/11/09 05:53:10;;;;;;;;;0.00;0.00;;;;;13.88;69.33;100451.81;5051132;28;49461;-59
2022/11/09 05:55:37;;;;;;;;;2.00;1.00;;;;;13.85;68.94;100450.00;5056274;28;46025;-58
2022/11/09 05:58:03;;;;;;;;;0.00;0.00;;;;;13.83;69.29;100452.66;5052244;28;45349;-60
2022/11/09 06:00:29;;;;;;;;;1.67;1.00;;;;;13.91;69.56;100459.88;5055594;28;45125;-59
2022/11/09 06:03:02;;;;;;;;;2.67;1.00;;;;;13.92;69.95;100475.09;5060355;28;45093;-58
2022/11/09 06:05:27;;;;;;;;;5.00;3.33;;;;;13.94;70.40;100476.00;5057769;28;45310;-59
2022/11/09 06:07:52;;;;;;;;;3.00;1.00;;;;;13.98;69.71;100483.22;5058755;28;63768;-59
2022/11/09 06:10:17;;;;;;;;;4.00;2.00;;;;;13.92;69.50;100472.41;5053358;28;52184;-58
2022/11/09 06:12:43;;;;;;;;;0.00;0.00;;;;;13.94;70.14;100479.63;5057816;28;58126;-59
2022/11/09 06:15:08;;;;;;;;;2.00;0.33;;;;;13.93;69.87;100480.50;5039367;28;47139;-59
2022/11/09 06:17:33;;;;;;;;;2.00;0.33;;;;;13.89;70.18;100476.00;5058485;28;45243;-60
2022/11/09 06:19:59;;;;;;;;;5.33;4.67;;;;;13.91;70.32;100479.59;5058349;28;45254;-60
2022/11/09 06:22:24;;;;;;;;;1.00;1.00;;;;;13.91;70.45;100484.03;5058480;28;45156;-60
2022/11/09 06:24:49;;;;;;;;;1.00;1.00;;;;;13.90;70.88;100484.94;5040506;28;45532;-59
2022/11/09 06:27:15;;;;;;;;;2.67;2.00;;;;;13.90;70.69;100484.94;5059506;28;45264;-59
2022/11/09 06:29:40;;;;;;;;;7.00;2.00;;;;;13.93;70.74;100493.03;5061104;28;45167;-60
2022/11/09 06:32:05;;;;;;;;;5.00;2.00;;;;;13.95;71.37;100492.13;5060016;28;45374;-60
2022/11/09 06:34:31;;;;;;;;;4.00;2.33;;;;;13.93;71.44;100495.72;5063533;28;46085;-60
2022/11/09 06:36:56;;;;;;;;;3.67;2.00;;;;;13.91;70.83;100508.22;5065597;28;45273;-60
2022/11/09 06:39:22;;;;;;;;;4.33;3.00;;;;;13.87;71.50;100501.91;5054191;28;45524;-59
2022/11/09 06:41:47;;;;;;;;;3.00;1.00;;;;;13.92;71.25;100510.91;5056490;28;45006;-60
2022/11/09 06:44:12;;;;;;;;;5.33;1.67;;;;;13.87;71.82;100511.78;5057496;28;46396;-60
2022/11/09 06:46:38;;;;;;;;;4.00;2.33;;;;;13.90;71.51;100522.53;5067827;28;45254;-58
2022/11/09 06:49:03;;;;;;;;;3.67;2.00;;;;;13.91;71.58;100524.31;5059945;28;45509;-59
2022/11/09 06:51:29;;;;;;;;;8.00;3.00;;;;;13.88;71.52;100508.22;5055894;28;45017;-60
2022/11/09 06:53:54;;;;;;;;;3.33;2.67;;;;;13.95;71.58;100529.75;5043883;28;52503;-60
2022/11/09 06:56:19;;;;;;;;;7.33;4.33;;;;;13.94;71.95;100527.97;5060060;28;45096;-60
2022/11/09 06:58:45;;;;;;;;;7.33;5.00;;;;;13.91;72.23;100518.94;5058052;28;45548;-60
2022/11/09 07:01:12;;;;;;;;;8.00;5.33;;;;;13.98;71.95;100534.25;5067154;28;45125;-60
2022/11/09 07:03:38;;;;;;;;;9.67;7.33;;;;;13.99;71.63;100533.34;5060608;28;45311;-60
2022/11/09 07:06:06;;;;;;;;;5.00;3.67;;;;;13.97;72.28;100538.75;5066363;28;45417;-59
2022/11/09 07:08:32;;;;;;;;;3.33;2.33;;;;;13.97;72.07;100541.41;5058105;28;45084;-60
2022/11/09 07:11:09;;;;;;;;;4.33;2.67;;;;;13.92;71.95;100531.50;5057986;28;45161;-60
2022/11/09 07:13:35;;;;;;;;;3.33;3.00;;;;;13.93;72.51;100536.88;5053905;28;46341;-60
2022/11/09 07:16:00;;;;;;;;;5.00;2.00;;;;;13.94;72.06;100533.34;5053536;28;45229;-60
2022/11/09 07:18:25;;;;;;;;;5.67;4.00;;;;;13.90;72.68;100542.22;5054290;28;45235;-58
2022/11/09 07:20:51;;;;;;;;;6.67;6.00;;;;;13.93;72.78;100555.69;5057092;28;45296;-59
2022/11/09 07:23:16;;;;;;;;;9.33;5.33;;;;;13.94;72.58;100552.13;5055917;28;45463;-60
2022/11/09 07:25:42;;;;;;;;;6.67;6.00;;;;;13.99;72.38;100560.22;5053751;28;45198;-60
2022/11/09 07:28:10;;;;;;;;;12.67;6.33;;;;;14.04;72.41;100561.19;5070057;28;45219;-60
2022/11/09 07:30:36;;;;;;;;;8.33;6.67;;;;;13.94;72.63;100548.53;5047178;28;45201;-60
2022/11/09 07:33:02;;;;;;;;;6.67;4.00;;;;;14.05;72.45;100573.69;5056218;28;45574;-61
2022/11/09 07:35:28;;;;;;;;;6.33;5.33;;;;;14.03;72.76;100569.22;5058674;28;45186;-59
2022/11/09 07:37:53;;;;;;;;;7.67;5.00;;;;;14.14;72.51;100576.50;5053581;28;45128;-60
2022/11/09 07:40:19;;;;;;;;;9.00;7.67;;;;;14.18;72.40;100577.41;5045400;28;45681;-59
2022/11/09 07:42:45;;;;;;;;;4.67;4.67;;;;;14.18;71.97;100570.25;5055516;28;46051;-60
2022/11/09 07:45:11;;;;;;;;;3.67;3.67;;;;;14.20;72.01;100567.56;5061928;28;45561;-61
2022/11/09 07:47:36;;;;;;;;;6.00;5.00;;;;;14.23;71.97;100574.78;5066107;28;45154;-58
2022/11/09 07:50:02;;;;;;;;;13.00;5.67;;;;;14.22;72.02;100581.91;5053660;28;44973;-60
2022/11/09 07:52:27;;;;;;;;;4.67;4.67;;;;;14.21;71.82;100580.13;5059910;28;45854;-62
2022/11/09 07:54:53;;;;;;;;;5.00;2.00;;;;;14.14;71.71;100576.50;5054054;28;44894;-60
2022/11/09 07:57:18;;;;;;;;;6.67;5.00;;;;;14.20;72.12;100583.69;5041177;28;46272;-59
2022/11/09 07:59:43;;;;;;;;;8.67;3.00;;;;;14.21;72.27;100585.50;5034567;28;45504;-60
2022/11/09 08:02:09;;;;;;;;;6.00;4.33;;;;;14.25;72.21;100598.06;5034668;28;48583;-62
2022/11/09 08:04:34;;;;;;;;;5.00;5.00;;;;;14.31;72.11;100607.97;5034585;28;45760;-60
2022/11/09 08:06:59;;;;;;;;;4.33;4.33;;;;;14.33;71.96;100595.44;5035409;28;45430;-59
2022/11/09 08:09:25;;;;;;;;;4.67;4.00;;;;;14.38;72.09;100597.28;5036391;28;45500;-60
2022/11/09 08:11:50;;;;;;;;;5.33;3.67;;;;;14.43;72.06;100604.50;5034964;28;45454;-60
2022/11/09 08:14:15;;;;;;;;;8.33;5.67;;;;;14.44;71.81;100590.19;5023765;28;45394;-59
2022/11/09 08:16:41;;;;;;;;;6.00;5.00;;;;;14.49;71.85;100599.19;5047200;28;45614;-61
2022/11/09 08:19:09;;;;;;;;;7.00;5.33;;;;;14.47;71.82;100587.50;5034989;28;45351;-60
2022/11/09 08:21:35;;;;;;;;;5.67;4.33;;;;;14.56;71.56;100599.22;5034184;28;45468;-62
2022/11/09 08:24:01;;;;;;;;;7.00;5.33;;;;;14.47;71.51;100584.81;5035073;28;45513;-61
2022/11/09 08:26:27;;;;;;;;;5.67;4.33;;;;;14.55;71.22;100596.50;5035128;28;45502;-60
2022/11/09 08:28:52;;;;;;;;;7.00;2.33;;;;;14.54;71.20;100592.03;5035276;28;45508;-60
2022/11/09 08:31:17;;;;;;;;;6.33;6.33;;;;;14.51;71.39;100598.28;5027875;28;47391;-61
2022/11/09 08:33:43;;;;;;;;;6.00;3.00;;;;;14.44;70.87;100590.19;5037354;28;45392;-61
2022/11/09 08:36:14;;;;;;;;;3.00;2.00;;;;;14.49;70.91;100612.63;5034858;28;45297;-60
2022/11/09 08:38:40;;;;;;;;;4.33;4.33;;;;;14.47;70.96;100617.06;5025827;28;45511;-59
2022/11/09 08:41:06;;;;;;;;;5.33;3.67;;;;;14.45;71.63;100618.84;5034324;28;45301;-60
2022/11/09 08:43:32;;;;;;;;;8.33;8.33;;;;;14.45;71.27;100619.75;5034297;28;45436;-60
2022/11/09 08:45:57;;;;;;;;;9.33;5.67;;;;;14.45;71.26;100618.84;5047973;28;45587;-61
2022/11/09 08:48:23;;;;;;;;;3.33;3.00;;;;;14.46;71.35;100620.66;5034627;28;45398;-60
2022/11/09 08:50:57;;;;;;;;;8.00;3.33;;;;;14.47;71.28;100615.28;5041849;28;45514;-60
2022/11/09 08:53:24;;;;;;;;;6.00;4.00;;;;;14.50;71.25;100620.69;5034325;28;45492;-59
2022/11/09 08:55:50;;;;;;;;;6.33;3.00;;;;;14.51;71.16;100621.59;5034644;28;45452;-59
2022/11/09 08:58:16;;;;;;;;;9.00;3.33;;;;;14.52;71.10;100629.66;5037489;28;45425;-59
2022/11/09 09:00:42;;;;;;;;;4.00;1.00;;;;;14.54;70.74;100625.19;5043274;28;46336;-60
2022/11/09 09:03:07;;;;;;;;;4.67;4.67;;;;;14.60;70.78;100636.91;5032398;28;53037;-59
2022/11/09 09:05:34;;;;;;;;;5.67;5.67;;;;;14.63;70.66;100640.53;5034021;28;45830;-59
2022/11/09 09:08:00;;;;;;;;;5.67;4.00;;;;;14.67;70.34;100641.47;5034289;28;45388;-61
2022/11/09 09:10:26;;;;;;;;;3.00;2.67;;;;;14.65;70.14;100625.31;5033775;28;45508;-61
2022/11/09 09:12:52;;;;;;;;;3.00;3.00;;;;;14.74;70.07;100630.75;5034196;28;45523;-60
2022/11/09 09:15:17;;;;;;;;;5.33;2.00;;;;;14.81;69.69;100633.50;5034323;28;45553;-61
2022/11/09 09:17:43;;;;;;;;;3.00;3.00;;;;;14.84;69.81;100646.97;5034549;28;45367;-60
2022/11/09 09:20:09;;;;;;;;;9.67;5.67;;;;;14.86;69.50;100640.69;5033191;28;46627;-61
2022/11/09 09:22:34;;;;;;;;;7.33;4.67;;;;;14.90;69.30;100653.28;5031823;28;45447;-61
2022/11/09 09:25:00;;;;;;;;;6.00;2.00;;;;;14.88;69.05;100648.78;5015392;28;45268;-60
2022/11/09 09:27:26;;;;;;;;;9.00;3.33;;;;;14.95;69.01;100644.34;5034217;28;45386;-61
2022/11/09 09:29:51;;;;;;;;;5.00;3.00;;;;;15.03;68.74;100651.59;5015944;28;46432;-61
2022/11/09 09:32:16;;;;;;;;;2.00;2.00;;;;;15.07;68.51;100657.88;5034281;28;45421;-59
2022/11/09 09:34:42;;;;;;;;;7.33;4.33;;;;;15.10;68.13;100656.13;5034457;28;45545;-61
2022/11/09 09:37:07;;;;;;;;;2.00;1.00;;;;;15.14;67.46;100664.22;5034258;28;45391;-61
2022/11/09 09:39:32;;;;;;;;;3.33;2.00;;;;;15.20;67.64;100673.22;5039847;28;45395;-60
2022/11/09 09:42:02;;;;;;;;;4.67;2.67;;;;;15.21;67.61;100664.28;5039873;28;45440;-59
2022/11/09 09:44:46;;;;;;;;;5.33;3.00;;;;;15.26;66.66;100670.56;5043016;28;45505;-60
2022/11/09 09:47:53;;;;;;;;;7.67;5.00;;;;;15.29;66.56;100678.66;5048440;28;45555;-61
2022/11/09 09:50:25;;;;;;;;;7.67;2.67;;;;;15.33;66.19;100679.59;5048073;28;45433;-60
2022/11/09 09:53:06;;;;;;;;;7.00;1.67;;;;;15.39;66.05;100670.63;5040115;28;45453;-60
2022/11/09 09:55:40;;;;;;;;;4.00;2.00;;;;;15.43;66.25;100677.84;5044168;28;45472;-60
2022/11/09 09:58:12;;;;;;;;;2.33;2.33;;;;;15.51;65.91;100684.16;5022280;28;45426;-59
2022/11/09 10:00:39;;;;;;;;;7.33;4.00;;;;;15.58;65.36;100679.72;5048219;28;46326;-61
2022/11/09 10:03:09;;;;;;;;;3.67;3.33;;;;;15.61;64.76;100690.50;5045729;28;45584;-61
2022/11/09 10:05:43;;;;;;;;;2.00;2.00;;;;;15.48;64.55;100668.00;5040085;28;45442;-62
2022/11/09 10:08:19;;;;;;;;;3.00;3.00;;;;;15.63;64.81;100703.06;5040458;28;45528;-60
2022/11/09 10:11:01;;;;;;;;;5.33;3.33;;;;;15.61;64.30;100703.97;5039937;28;46103;-61
2022/11/09 10:13:41;;;;;;;;;3.00;3.00;;;;;15.66;64.22;100708.47;5039567;28;45702;-61
2022/11/09 10:16:18;;;;;;;;;4.00;2.33;;;;;15.71;64.20;100713.88;5043118;28;45473;-59
2022/11/09 10:18:48;;;;;;;;;3.00;2.00;;;;;15.78;63.78;100718.44;5040358;28;45632;-60
2022/11/09 10:21:30;;;;;;;;;2.67;2.00;;;;;15.71;62.94;100700.41;5040112;28;46800;-60
2022/11/09 10:24:24;;;;;;;;;2.00;2.00;;;;;15.81;63.10;100728.34;5051372;28;45554;-60
2022/11/09 10:26:55;;;;;;;;;1.00;1.00;;;;;15.80;62.33;100729.22;5007425;28;45664;-60
2022/11/09 10:29:27;;;;;;;;;2.00;1.33;;;;;15.83;62.44;100735.50;5040356;28;45422;-60
2022/11/09 10:31:56;;;;;;;;;2.33;2.33;;;;;15.91;62.69;100738.25;5039781;28;45748;-61
2022/11/09 10:34:28;;;;;;;;;3.00;3.00;;;;;16.03;62.44;100737.41;5039676;28;45399;-60
2022/11/09 10:37:08;;;;;;;;;3.00;2.00;;;;;16.12;62.02;100742.84;5039716;28;45465;-60
2022/11/09 10:39:51;;;;;;;;;2.67;2.67;;;;;16.21;61.76;100739.25;5040036;28;45546;-61
2022/11/09 10:42:16;;;;;;;;;4.33;3.33;;;;;16.31;61.12;100742.88;5030863;28;46582;-61
2022/11/09 10:44:41;;;;;;;;;2.33;1.33;;;;;16.42;60.75;100748.31;5042654;28;45462;-61
2022/11/09 10:47:13;;;;;;;;;6.00;2.00;;;;;16.46;60.34;100742.03;5044899;28;45449;-60
2022/11/09 10:49:39;;;;;;;;;6.33;1.00;;;;;16.56;60.00;100754.63;5036463;28;45399;-61
2022/11/09 10:52:25;;;;;;;;;3.00;1.50;;;;;16.53;59.34;100741.13;5036020;28;45473;-61
2022/11/09 10:54:51;;;;;;;;;3.00;0.67;;;;;16.60;59.22;100745.66;5035582;28;45279;-63
2022/11/09 10:57:21;;;;;;;;;3.00;2.00;;;;;16.61;59.17;100747.44;5036608;28;45435;-62
2022/11/09 10:59:53;;;;;;;;;4.00;3.00;;;;;16.67;59.04;100755.53;5034676;28;45603;-60
2022/11/09 11:02:27;;;;;;;;;1.00;1.00;;;;;16.73;59.24;100760.94;5035914;28;45530;-60
2022/11/09 11:05:05;;;;;;;;;2.67;2.67;;;;;16.83;58.72;100763.63;5035659;28;45521;-61
2022/11/09 11:07:31;;;;;;;;;5.00;4.67;;;;;16.90;58.49;100762.81;5036544;28;45575;-60
2022/11/09 11:10:18;;;;;;;;;4.00;2.00;;;;;16.88;58.21;100754.69;5036104;28;45494;-61
2022/11/09 11:12:52;;;;;;;;;3.00;3.00;;;;;16.86;57.69;100763.69;5035526;28;47010;-62
2022/11/09 11:15:28;;;;;;;;;3.00;3.00;;;;;16.71;57.68;100743.88;5035745;28;45662;-60
2022/11/09 11:18:18;;;;;;;;;5.00;1.67;;;;;16.81;57.76;100763.63;5035611;28;45538;-60
2022/11/09 11:20:43;;;;;;;;;2.67;2.67;;;;;16.73;57.39;100763.66;5035181;28;45349;-60
2022/11/09 11:23:21;;;;;;;;;2.67;2.00;;;;;16.72;57.41;100759.13;5020806;28;45728;-61
2022/11/09 11:25:56;;;;;;;;;3.33;3.00;;;;;16.73;56.89;100760.06;5046857;28;45500;-61
2022/11/09 11:28:53;;;;;;;;;4.00;1.67;;;;;16.71;56.56;100749.28;5036358;28;45496;-60